sensor_id;sensor_type;location;lat;lon;timestamp;pressure;altitude;pressure_sealevel;temperature;humidity
61478;BME280;47345;52.334;10.392;2022-09-12T00:01:36;101116.20;;;13.58;84.89
61478;BME280;47345;52.334;10.392;2022-09-12T00:04:06;101115.65;;;13.58;85.07
61478;BME280;47345;52.334;10.392;2022-09-12T00:06:37;101114.14;;;13.56;84.72
61478;BME280;47345;52.334;10.392;2022-09-12T00:09:10;101113.77;;;13.53;84.35
61478;BME280;47345;52.334;10.392;2022-09-12T00:11:43;101111.37;;;13.51;84.41
61478;BME280;47345;52.334;10.392;2022-09-12T00:14:15;101106.73;;;13.47;84.10
61478;BME280;47345;52.334;10.392;2022-09-12T00:16:46;101102.73;;;13.45;84.06
61478;BME280;47345;52.334;10.392;2022-09-12T00:19:16;101100.16;;;13.43;84.38
61478;BME280;47345;52.334;10.392;2022-09-12T00:21:47;101103.74;;;13.42;84.39
61478;BME280;47345;52.334;10.392;2022-09-12T00:24:17;101101.48;;;13.39;83.81
61478;BME280;47345;52.334;10.392;2022-09-12T00:26:47;101102.17;;;13.36;83.92
61478;BME280;47345;52.334;10.392;2022-09-12T00:29:20;101102.05;;;13.35;84.00
61478;BME280;47345;52.334;10.392;2022-09-12T00:31:51;101103.71;;;13.32;83.88
61478;BME280;47345;52.334;10.392;2022-09-12T00:34:21;101100.38;;;13.30;83.74
61478;BME280;47345;52.334;10.392;2022-09-12T00:36:51;101096.74;;;13.28;84.01
61478;BME280;47345;52.334;10.392;2022-09-12T00:39:21;101095.85;;;13.28;84.47
61478;BME280;47345;52.334;10.392;2022-09-12T00:41:52;101094.55;;;13.27;84.69
61478;BME280;47345;52.334;10.392;2022-09-12T00:44:42;101090.41;;;13.26;84.59
61478;BME280;47345;52.334;10.392;2022-09-12T00:47:16;101085.36;;;13.23;84.11
61478;BME280;47345;52.334;10.392;2022-09-12T00:49:51;101086.10;;;13.18;83.36
61478;BME280;47345;52.334;10.392;2022-09-12T00:52:27;101088.44;;;13.11;83.10
61478;BME280;47345;52.334;10.392;2022-09-12T00:55:03;101086.27;;;13.06;83.16
61478;BME280;47345;52.334;10.392;2022-09-12T00:57:36;101086.86;;;13.03;83.19
61478;BME280;47345;52.334;10.392;2022-09-12T01:00:12;101090.41;;;13.00;82.64
61478;BME280;47345;52.334;10.392;2022-09-12T01:02:48;101083.59;;;12.95;82.35
61478;BME280;47345;52.334;10.392;2022-09-12T01:05:19;101084.23;;;12.90;82.60
61478;BME280;47345;52.334;10.392;2022-09-12T01:07:50;101085.58;;;12.89;82.55
61478;BME280;47345;52.334;10.392;2022-09-12T01:10:21;101082.89;;;12.85;82.57
61478;BME280;47345;52.334;10.392;2022-09-12T01:12:52;101084.06;;;12.83;82.78
61478;BME280;47345;52.334;10.392;2022-09-12T01:15:22;101082.63;;;12.82;83.06
61478;BME280;47345;52.334;10.392;2022-09-12T01:18:04;101081.40;;;12.80;82.79
61478;BME280;47345;52.334;10.392;2022-09-12T01:26:56;101078.63;;;12.77;83.48
61478;BME280;47345;52.334;10.392;2022-09-12T01:29:47;101075.00;;;12.76;84.06
61478;BME280;47345;52.334;10.392;2022-09-12T01:32:30;101072.16;;;12.76;84.07
61478;BME280;47345;52.334;10.392;2022-09-12T01:35:13;101073.74;;;12.74;83.78
61478;BME280;47345;52.334;10.392;2022-09-12T01:37:57;101072.35;;;12.72;84.02
61478;BME280;47345;52.334;10.392;2022-09-12T01:40:33;101076.30;;;12.72;84.41
61478;BME280;47345;52.334;10.392;2022-09-12T01:43:08;101075.13;;;12.73;84.64
61478;BME280;47345;52.334;10.392;2022-09-12T01:45:46;101071.41;;;12.72;84.49
61478;BME280;47345;52.334;10.392;2022-09-12T01:48:25;101067.81;;;12.69;84.14
61478;BME280;47345;52.334;10.392;2022-09-12T01:51:02;101066.45;;;12.65;84.12
61478;BME280;47345;52.334;10.392;2022-09-12T01:53:37;101062.19;;;12.63;84.18
61478;BME280;47345;52.334;10.392;2022-09-12T01:56:13;101060.89;;;12.61;84.12
61478;BME280;47345;52.334;10.392;2022-09-12T01:58:46;101056.95;;;12.60;84.54
61478;BME280;47345;52.334;10.392;2022-09-12T02:01:22;101055.40;;;12.59;84.70
61478;BME280;47345;52.334;10.392;2022-09-12T02:03:59;101056.45;;;12.58;84.44
61478;BME280;47345;52.334;10.392;2022-09-12T02:06:34;101054.64;;;12.57;84.23
61478;BME280;47345;52.334;10.392;2022-09-12T02:09:09;101054.02;;;12.56;84.38
61478;BME280;47345;52.334;10.392;2022-09-12T02:11:43;101053.08;;;12.56;84.58
61478;BME280;47345;52.334;10.392;2022-09-12T02:14:16;101054.30;;;12.57;84.91
61478;BME280;47345;52.334;10.392;2022-09-12T02:16:51;101053.59;;;12.58;84.99
61478;BME280;47345;52.334;10.392;2022-09-12T02:19:25;101051.86;;;12.59;84.83
61478;BME280;47345;52.334;10.392;2022-09-12T02:21:59;101050.59;;;12.57;84.25
61478;BME280;47345;52.334;10.392;2022-09-12T02:24:39;101045.69;;;12.54;83.78
61478;BME280;47345;52.334;10.392;2022-09-12T02:27:14;101045.23;;;12.50;83.61
61478;BME280;47345;52.334;10.392;2022-09-12T02:29:45;101045.98;;;12.49;83.86
61478;BME280;47345;52.334;10.392;2022-09-12T02:32:26;101046.50;;;12.47;83.46
61478;BME280;47345;52.334;10.392;2022-09-12T02:35:02;101045.27;;;12.42;82.96
61478;BME280;47345;52.334;10.392;2022-09-12T02:37:44;101042.36;;;12.38;82.62
61478;BME280;47345;52.334;10.392;2022-09-12T02:40:18;101040.48;;;12.33;82.74
61478;BME280;47345;52.334;10.392;2022-09-12T02:42:49;101037.98;;;12.30;82.97
61478;BME280;47345;52.334;10.392;2022-09-12T02:45:19;101036.17;;;12.29;83.15
61478;BME280;47345;52.334;10.392;2022-09-12T02:47:54;101036.58;;;12.28;83.22
61478;BME280;47345;52.334;10.392;2022-09-12T02:50:28;101033.30;;;12.28;83.48
61478;BME280;47345;52.334;10.392;2022-09-12T02:52:58;101033.41;;;12.27;83.50
61478;BME280;47345;52.334;10.392;2022-09-12T02:55:34;101034.64;;;12.28;83.41
61478;BME280;47345;52.334;10.392;2022-09-12T02:58:06;101034.10;;;12.26;83.24
61478;BME280;47345;52.334;10.392;2022-09-12T03:00:43;101030.67;;;12.26;83.25
61478;BME280;47345;52.334;10.392;2022-09-12T03:03:35;101027.60;;;12.23;82.91
61478;BME280;47345;52.334;10.392;2022-09-12T03:06:17;101024.91;;;12.21;83.09
61478;BME280;47345;52.334;10.392;2022-09-12T03:08:59;101026.20;;;12.20;83.11
61478;BME280;47345;52.334;10.392;2022-09-12T03:11:58;101025.77;;;12.17;82.65
61478;BME280;47345;52.334;10.392;2022-09-12T03:14:41;101027.40;;;12.14;82.91
61478;BME280;47345;52.334;10.392;2022-09-12T03:17:21;101027.61;;;12.11;82.26
61478;BME280;47345;52.334;10.392;2022-09-12T03:19:59;101029.68;;;12.06;82.08
61478;BME280;47345;52.334;10.392;2022-09-12T03:22:37;101030.18;;;12.03;82.23
61478;BME280;47345;52.334;10.392;2022-09-12T03:25:15;101028.58;;;12.01;82.57
61478;BME280;47345;52.334;10.392;2022-09-12T03:27:55;101026.89;;;12.00;82.75
61478;BME280;47345;52.334;10.392;2022-09-12T03:30:27;101023.81;;;12.00;82.87
61478;BME280;47345;52.334;10.392;2022-09-12T03:32:58;101024.63;;;11.99;82.63
61478;BME280;47345;52.334;10.392;2022-09-12T03:35:28;101025.05;;;11.97;82.33
61478;BME280;47345;52.334;10.392;2022-09-12T03:37:58;101026.94;;;11.96;82.63
61478;BME280;47345;52.334;10.392;2022-09-12T03:40:28;101024.11;;;11.96;82.68
61478;BME280;47345;52.334;10.392;2022-09-12T03:42:59;101028.75;;;11.94;82.61
61478;BME280;47345;52.334;10.392;2022-09-12T03:45:30;101027.40;;;11.91;82.25
61478;BME280;47345;52.334;10.392;2022-09-12T03:48:00;101028.90;;;11.86;82.02
61478;BME280;47345;52.334;10.392;2022-09-12T03:50:31;101023.16;;;11.81;81.96
61478;BME280;47345;52.334;10.392;2022-09-12T03:53:02;101023.75;;;11.77;82.19
61478;BME280;47345;52.334;10.392;2022-09-12T03:55:32;101027.83;;;11.75;82.45
61478;BME280;47345;52.334;10.392;2022-09-12T03:58:02;101026.27;;;11.72;82.20
61478;BME280;47345;52.334;10.392;2022-09-12T04:00:32;101023.90;;;11.69;82.31
61478;BME280;47345;52.334;10.392;2022-09-12T04:03:02;101024.74;;;11.67;82.42
61478;BME280;47345;52.334;10.392;2022-09-12T04:05:33;101031.41;;;11.63;82.01
61478;BME280;47345;52.334;10.392;2022-09-12T04:08:04;101028.27;;;11.61;82.18
61478;BME280;47345;52.334;10.392;2022-09-12T04:10:35;101031.73;;;11.58;82.39
61478;BME280;47345;52.334;10.392;2022-09-12T04:13:05;101033.25;;;11.57;82.52
61478;BME280;47345;52.334;10.392;2022-09-12T04:15:35;101032.52;;;11.55;82.38
61478;BME280;47345;52.334;10.392;2022-09-12T04:18:06;101031.89;;;11.52;82.54
61478;BME280;47345;52.334;10.392;2022-09-12T04:20:36;101029.10;;;11.52;82.71
61478;BME280;47345;52.334;10.392;2022-09-12T04:23:06;101030.91;;;11.51;82.86
61478;BME280;47345;52.334;10.392;2022-09-12T04:25:36;101031.75;;;11.49;82.77
61478;BME280;47345;52.334;10.392;2022-09-12T04:28:07;101030.02;;;11.48;82.98
61478;BME280;47345;52.334;10.392;2022-09-12T04:30:38;101032.80;;;11.48;82.92
61478;BME280;47345;52.334;10.392;2022-09-12T04:33:08;101039.20;;;11.47;82.60
61478;BME280;47345;52.334;10.392;2022-09-12T04:35:38;101038.05;;;11.45;82.28
61478;BME280;47345;52.334;10.392;2022-09-12T04:38:09;101036.54;;;11.44;82.49
61478;BME280;47345;52.334;10.392;2022-09-12T04:40:40;101033.96;;;11.44;82.51
61478;BME280;47345;52.334;10.392;2022-09-12T04:43:10;101039.09;;;11.44;82.61
61478;BME280;47345;52.334;10.392;2022-09-12T04:45:42;101038.17;;;11.44;82.43
61478;BME280;47345;52.334;10.392;2022-09-12T04:48:12;101037.25;;;11.43;82.40
61478;BME280;47345;52.334;10.392;2022-09-12T04:50:43;101038.22;;;11.43;82.62
61478;BME280;47345;52.334;10.392;2022-09-12T04:53:13;101044.28;;;11.42;82.65
61478;BME280;47345;52.334;10.392;2022-09-12T04:55:43;101040.65;;;11.42;82.73
61478;BME280;47345;52.334;10.392;2022-09-12T04:58:14;101037.49;;;11.41;82.78
61478;BME280;47345;52.334;10.392;2022-09-12T05:00:44;101037.95;;;11.42;82.68
61478;BME280;47345;52.334;10.392;2022-09-12T05:03:14;101037.66;;;11.41;83.06
61478;BME280;47345;52.334;10.392;2022-09-12T05:05:44;101037.38;;;11.43;83.32
61478;BME280;47345;52.334;10.392;2022-09-12T05:08:15;101036.83;;;11.43;82.99
61478;BME280;47345;52.334;10.392;2022-09-12T05:10:45;101036.84;;;11.45;83.26
61478;BME280;47345;52.334;10.392;2022-09-12T05:13:16;101043.36;;;11.46;83.43
61478;BME280;47345;52.334;10.392;2022-09-12T05:15:55;101042.40;;;11.47;83.07
61478;BME280;47345;52.334;10.392;2022-09-12T05:18:26;101048.38;;;11.46;82.92
61478;BME280;47345;52.334;10.392;2022-09-12T05:20:59;101047.29;;;11.46;83.00
61478;BME280;47345;52.334;10.392;2022-09-12T05:23:30;101042.40;;;11.47;83.20
61478;BME280;47345;52.334;10.392;2022-09-12T05:26:02;101042.78;;;11.48;83.33
61478;BME280;47345;52.334;10.392;2022-09-12T05:28:35;101044.52;;;11.49;83.51
61478;BME280;47345;52.334;10.392;2022-09-12T05:31:07;101041.58;;;11.50;83.53
61478;BME280;47345;52.334;10.392;2022-09-12T05:33:42;101049.13;;;11.52;83.77
61478;BME280;47345;52.334;10.392;2022-09-12T05:36:15;101052.91;;;11.54;83.79
61478;BME280;47345;52.334;10.392;2022-09-12T05:38:45;101053.95;;;11.56;83.97
61478;BME280;47345;52.334;10.392;2022-09-12T05:41:18;101054.27;;;11.58;84.23
61478;BME280;47345;52.334;10.392;2022-09-12T05:43:54;101052.44;;;11.59;84.35
61478;BME280;47345;52.334;10.392;2022-09-12T05:46:26;101054.39;;;11.62;84.63
61478;BME280;47345;52.334;10.392;2022-09-12T05:49:00;101051.39;;;11.65;84.73
61478;BME280;47345;52.334;10.392;2022-09-12T05:51:33;101056.69;;;11.69;84.87
61478;BME280;47345;52.334;10.392;2022-09-12T05:54:06;101057.00;;;11.72;85.17
61478;BME280;47345;52.334;10.392;2022-09-12T05:56:39;101056.71;;;11.75;85.40
61478;BME280;47345;52.334;10.392;2022-09-12T05:59:12;101055.84;;;11.80;85.89
61478;BME280;47345;52.334;10.392;2022-09-12T06:01:43;101063.11;;;11.85;86.13
61478;BME280;47345;52.334;10.392;2022-09-12T06:04:13;101063.20;;;11.89;86.39
61478;BME280;47345;52.334;10.392;2022-09-12T06:06:44;101069.15;;;11.94;86.52
61478;BME280;47345;52.334;10.392;2022-09-12T06:09:16;101066.48;;;11.99;86.73
61478;BME280;47345;52.334;10.392;2022-09-12T06:11:46;101064.73;;;12.03;86.82
61478;BME280;47345;52.334;10.392;2022-09-12T06:14:17;101063.16;;;12.08;87.02
61478;BME280;47345;52.334;10.392;2022-09-12T06:16:47;101062.21;;;12.12;87.29
61478;BME280;47345;52.334;10.392;2022-09-12T06:19:19;101060.69;;;12.18;87.76
61478;BME280;47345;52.334;10.392;2022-09-12T06:21:51;101062.83;;;12.23;88.06
61478;BME280;47345;52.334;10.392;2022-09-12T06:24:21;101063.23;;;12.29;88.53
61478;BME280;47345;52.334;10.392;2022-09-12T06:26:52;101061.15;;;12.34;88.92
61478;BME280;47345;52.334;10.392;2022-09-12T06:29:23;101060.48;;;12.40;89.18
61478;BME280;47345;52.334;10.392;2022-09-12T06:31:54;101057.95;;;12.45;89.34
61478;BME280;47345;52.334;10.392;2022-09-12T06:34:24;101059.67;;;12.51;89.60
61478;BME280;47345;52.334;10.392;2022-09-12T06:36:55;101054.85;;;12.58;89.71
61478;BME280;47345;52.334;10.392;2022-09-12T06:39:26;101052.35;;;12.63;89.96
61478;BME280;47345;52.334;10.392;2022-09-12T06:41:56;101048.88;;;12.69;90.20
61478;BME280;47345;52.334;10.392;2022-09-12T06:44:26;101046.83;;;12.75;90.15
61478;BME280;47345;52.334;10.392;2022-09-12T06:46:57;101048.05;;;12.79;90.22
61478;BME280;47345;52.334;10.392;2022-09-12T06:49:27;101050.15;;;12.84;90.27
61478;BME280;47345;52.334;10.392;2022-09-12T06:51:58;101046.50;;;12.91;90.59
61478;BME280;47345;52.334;10.392;2022-09-12T06:54:29;101041.29;;;12.96;90.86
61478;BME280;47345;52.334;10.392;2022-09-12T06:56:59;101036.71;;;13.02;90.91
61478;BME280;47345;52.334;10.392;2022-09-12T06:59:30;101037.92;;;13.07;90.99
61478;BME280;47345;52.334;10.392;2022-09-12T07:02:00;101039.39;;;13.13;91.14
61478;BME280;47345;52.334;10.392;2022-09-12T07:04:31;101040.33;;;13.19;91.23
61478;BME280;47345;52.334;10.392;2022-09-12T07:07:04;101045.08;;;13.26;91.28
61478;BME280;47345;52.334;10.392;2022-09-12T07:09:34;101044.48;;;13.31;91.36
61478;BME280;47345;52.334;10.392;2022-09-12T07:12:05;101050.30;;;13.37;91.43
61478;BME280;47345;52.334;10.392;2022-09-12T07:14:36;101048.98;;;13.42;91.46
61478;BME280;47345;52.334;10.392;2022-09-12T07:17:06;101047.48;;;13.48;91.55
61478;BME280;47345;52.334;10.392;2022-09-12T07:19:37;101054.23;;;13.54;91.50
61478;BME280;47345;52.334;10.392;2022-09-12T07:22:07;101053.81;;;13.60;91.55
61478;BME280;47345;52.334;10.392;2022-09-12T07:24:37;101048.84;;;13.67;91.79
61478;BME280;47345;52.334;10.392;2022-09-12T07:27:09;101049.14;;;13.72;91.69
61478;BME280;47345;52.334;10.392;2022-09-12T07:29:39;101050.08;;;13.77;91.65
61478;BME280;47345;52.334;10.392;2022-09-12T07:32:09;101049.30;;;13.84;91.67
61478;BME280;47345;52.334;10.392;2022-09-12T07:34:40;101054.06;;;13.89;91.62
61478;BME280;47345;52.334;10.392;2022-09-12T07:37:10;101051.81;;;13.96;91.91
61478;BME280;47345;52.334;10.392;2022-09-12T07:39:40;101056.23;;;14.03;92.08
61478;BME280;47345;52.334;10.392;2022-09-12T07:42:11;101054.60;;;14.10;92.04
61478;BME280;47345;52.334;10.392;2022-09-12T07:44:41;101053.65;;;14.16;92.06
61478;BME280;47345;52.334;10.392;2022-09-12T07:47:12;101053.77;;;14.22;91.90
61478;BME280;47345;52.334;10.392;2022-09-12T07:49:42;101056.40;;;14.28;91.94
61478;BME280;47345;52.334;10.392;2022-09-12T07:52:12;101052.48;;;14.33;91.72
61478;BME280;47345;52.334;10.392;2022-09-12T07:54:43;101051.48;;;14.38;91.88
61478;BME280;47345;52.334;10.392;2022-09-12T07:57:13;101049.39;;;14.44;91.71
61478;BME280;47345;52.334;10.392;2022-09-12T07:59:43;101046.27;;;14.51;92.12
61478;BME280;47345;52.334;10.392;2022-09-12T08:02:19;101052.48;;;14.57;91.91
61478;BME280;47345;52.334;10.392;2022-09-12T08:04:50;101053.95;;;14.64;92.21
61478;BME280;47345;52.334;10.392;2022-09-12T08:07:21;101051.20;;;14.70;92.16
61478;BME280;47345;52.334;10.392;2022-09-12T08:09:51;101052.75;;;14.77;92.23
61478;BME280;47345;52.334;10.392;2022-09-12T08:12:22;101054.30;;;14.83;92.04
61478;BME280;47345;52.334;10.392;2022-09-12T08:14:52;101056.30;;;14.89;92.05
61478;BME280;47345;52.334;10.392;2022-09-12T08:17:23;101058.98;;;14.96;92.00
61478;BME280;47345;52.334;10.392;2022-09-12T08:19:53;101058.70;;;15.03;92.18
61478;BME280;47345;52.334;10.392;2022-09-12T08:22:24;101061.30;;;15.10;92.09
61478;BME280;47345;52.334;10.392;2022-09-12T08:24:54;101059.77;;;15.17;91.88
61478;BME280;47345;52.334;10.392;2022-09-12T08:27:24;101060.80;;;15.22;91.73
61478;BME280;47345;52.334;10.392;2022-09-12T08:29:55;101062.14;;;15.28;91.87
61478;BME280;47345;52.334;10.392;2022-09-12T08:32:25;101060.14;;;15.35;92.30
61478;BME280;47345;52.334;10.392;2022-09-12T08:34:55;101056.98;;;15.42;91.97
61478;BME280;47345;52.334;10.392;2022-09-12T08:37:26;101060.13;;;15.48;91.75
61478;BME280;47345;52.334;10.392;2022-09-12T08:39:58;101057.98;;;15.53;91.51
61478;BME280;47345;52.334;10.392;2022-09-12T08:42:32;101055.64;;;15.60;91.91
61478;BME280;47345;52.334;10.392;2022-09-12T08:45:17;101047.29;;;15.69;92.15
61478;BME280;47345;52.334;10.392;2022-09-12T08:47:50;101051.70;;;15.78;91.69
61478;BME280;47345;52.334;10.392;2022-09-12T08:50:22;101048.23;;;15.84;91.25
61478;BME280;47345;52.334;10.392;2022-09-12T08:52:56;101048.02;;;15.87;91.01
61478;BME280;47345;52.334;10.392;2022-09-12T08:55:39;101048.59;;;15.92;90.66
61478;BME280;47345;52.334;10.392;2022-09-12T08:58:14;101048.77;;;15.98;90.40
61478;BME280;47345;52.334;10.392;2022-09-12T09:00:53;101051.31;;;16.04;90.38
61478;BME280;47345;52.334;10.392;2022-09-12T09:03:58;101050.83;;;16.13;90.74
61478;BME280;47345;52.334;10.392;2022-09-12T09:06:46;101051.16;;;16.21;90.26
61478;BME280;47345;52.334;10.392;2022-09-12T09:09:26;101046.38;;;16.28;89.84
61478;BME280;47345;52.334;10.392;2022-09-12T09:12:08;101043.65;;;16.33;89.98
61478;BME280;47345;52.334;10.392;2022-09-12T09:14:55;101041.36;;;16.39;89.98
61478;BME280;47345;52.334;10.392;2022-09-12T09:17:33;101038.90;;;16.47;89.84
61478;BME280;47345;52.334;10.392;2022-09-12T09:20:15;101033.86;;;16.56;89.83
61478;BME280;47345;52.334;10.392;2022-09-12T09:22:53;101029.71;;;16.64;89.62
61478;BME280;47345;52.334;10.392;2022-09-12T09:25:28;101029.53;;;16.72;89.77
61478;BME280;47345;52.334;10.392;2022-09-12T09:28:10;101026.48;;;16.81;89.14
61478;BME280;47345;52.334;10.392;2022-09-12T09:30:43;101025.72;;;16.87;88.28
61478;BME280;47345;52.334;10.392;2022-09-12T09:33:20;101022.52;;;16.94;88.68
61478;BME280;47345;52.334;10.392;2022-09-12T09:35:52;101016.08;;;17.05;88.36
61478;BME280;47345;52.334;10.392;2022-09-12T09:38:30;101012.19;;;17.18;87.91
61478;BME280;47345;52.334;10.392;2022-09-12T09:41:24;101011.14;;;17.30;87.50
61478;BME280;47345;52.334;10.392;2022-09-12T09:43:58;101011.80;;;17.37;86.70
61478;BME280;47345;52.334;10.392;2022-09-12T09:46:30;101009.78;;;17.41;86.30
61478;BME280;47345;52.334;10.392;2022-09-12T09:49:02;101008.36;;;17.48;85.81
61478;BME280;47345;52.334;10.392;2022-09-12T09:51:37;101008.19;;;17.57;85.44
61478;BME280;47345;52.334;10.392;2022-09-12T09:54:15;101005.48;;;17.66;84.93
61478;BME280;47345;52.334;10.392;2022-09-12T09:56:47;101004.05;;;17.76;83.52
61478;BME280;47345;52.334;10.392;2022-09-12T09:59:20;101004.23;;;17.87;83.64
61478;BME280;47345;52.334;10.392;2022-09-12T10:01:56;100998.45;;;17.97;82.82
61478;BME280;47345;52.334;10.392;2022-09-12T10:04:32;100992.77;;;18.08;82.24
61478;BME280;47345;52.334;10.392;2022-09-12T10:07:18;100987.63;;;18.15;81.25
61478;BME280;47345;52.334;10.392;2022-09-12T10:10:12;100985.80;;;18.22;80.96
61478;BME280;47345;52.334;10.392;2022-09-12T10:12:43;100979.55;;;18.28;80.54
61478;BME280;47345;52.334;10.392;2022-09-12T10:15:19;100978.97;;;18.36;80.29
61478;BME280;47345;52.334;10.392;2022-09-12T10:17:51;100975.35;;;18.42;79.48
61478;BME280;47345;52.334;10.392;2022-09-12T10:20:35;100978.45;;;18.48;79.15
61478;BME280;47345;52.334;10.392;2022-09-12T10:23:27;100979.70;;;18.60;79.22
61478;BME280;47345;52.334;10.392;2022-09-12T10:26:00;100979.62;;;18.71;78.54
61478;BME280;47345;52.334;10.392;2022-09-12T10:28:34;100979.65;;;18.82;78.46
61478;BME280;47345;52.334;10.392;2022-09-12T10:31:08;100982.65;;;18.96;78.26
61478;BME280;47345;52.334;10.392;2022-09-12T10:33:43;100982.35;;;19.09;77.63
61478;BME280;47345;52.334;10.392;2022-09-12T10:36:15;100978.27;;;19.21;76.65
61478;BME280;47345;52.334;10.392;2022-09-12T10:38:51;100981.89;;;19.31;75.86
61478;BME280;47345;52.334;10.392;2022-09-12T10:41:23;100980.27;;;19.40;74.95
61478;BME280;47345;52.334;10.392;2022-09-12T10:44:06;100982.90;;;19.48;73.82
61478;BME280;47345;52.334;10.392;2022-09-12T10:46:38;100978.11;;;19.56;73.63
61478;BME280;47345;52.334;10.392;2022-09-12T10:49:21;100975.48;;;19.61;73.33
61478;BME280;47345;52.334;10.392;2022-09-12T10:51:54;100969.14;;;19.66;72.81
61478;BME280;47345;52.334;10.392;2022-09-12T10:54:26;100963.77;;;19.72;72.13
61478;BME280;47345;52.334;10.392;2022-09-12T10:57:18;100962.30;;;19.77;72.51
61478;BME280;47345;52.334;10.392;2022-09-12T11:00:03;100960.38;;;19.85;71.62
61478;BME280;47345;52.334;10.392;2022-09-12T11:05:45;100953.63;;;19.97;70.37
61478;BME280;47345;52.334;10.392;2022-09-12T11:08:30;100948.95;;;20.03;69.06
61478;BME280;47345;52.334;10.392;2022-09-12T11:11:10;100942.70;;;20.07;69.14
61478;BME280;47345;52.334;10.392;2022-09-12T11:13:54;100934.16;;;20.09;68.66
61478;BME280;47345;52.334;10.392;2022-09-12T11:16:32;100934.59;;;20.12;68.48
61478;BME280;47345;52.334;10.392;2022-09-12T11:19:31;100935.15;;;20.17;68.44
61478;BME280;47345;52.334;10.392;2022-09-12T11:22:20;100931.00;;;20.19;68.59
61478;BME280;47345;52.334;10.392;2022-09-12T11:25:11;100929.58;;;20.23;67.48
61478;BME280;47345;52.334;10.392;2022-09-12T11:28:01;100926.16;;;20.27;67.30
61478;BME280;47345;52.334;10.392;2022-09-12T11:30:41;100930.14;;;20.31;67.14
61478;BME280;47345;52.334;10.392;2022-09-12T11:33:29;100931.09;;;20.32;67.04
61478;BME280;47345;52.334;10.392;2022-09-12T11:36:19;100929.48;;;20.33;66.49
61478;BME280;47345;52.334;10.392;2022-09-12T11:39:00;100929.81;;;20.32;65.68
61478;BME280;47345;52.334;10.392;2022-09-12T11:41:33;100928.59;;;20.32;65.99
61478;BME280;47345;52.334;10.392;2022-09-12T11:44:13;100927.05;;;20.34;66.27
61478;BME280;47345;52.334;10.392;2022-09-12T11:46:45;100925.49;;;20.36;65.59
61478;BME280;47345;52.334;10.392;2022-09-12T11:49:27;100923.73;;;20.35;65.47
61478;BME280;47345;52.334;10.392;2022-09-12T11:52:06;100923.11;;;20.37;65.75
61478;BME280;47345;52.334;10.392;2022-09-12T11:54:43;100920.17;;;20.38;65.51
61478;BME280;47345;52.334;10.392;2022-09-12T11:57:28;100919.90;;;20.39;65.27
61478;BME280;47345;52.334;10.392;2022-09-12T12:00:03;100919.02;;;20.40;65.61
61478;BME280;47345;52.334;10.392;2022-09-12T12:02:41;100918.35;;;20.39;65.59
61478;BME280;47345;52.334;10.392;2022-09-12T12:05:21;100918.30;;;20.40;65.38
61478;BME280;47345;52.334;10.392;2022-09-12T12:07:54;100916.30;;;20.41;65.16
61478;BME280;47345;52.334;10.392;2022-09-12T12:10:30;100916.15;;;20.42;65.22
61478;BME280;47345;52.334;10.392;2022-09-12T12:13:01;100917.77;;;20.43;65.27
61478;BME280;47345;52.334;10.392;2022-09-12T12:15:35;100913.05;;;20.46;65.23
61478;BME280;47345;52.334;10.392;2022-09-12T12:18:14;100916.56;;;20.48;65.89
61478;BME280;47345;52.334;10.392;2022-09-12T12:20:46;100912.52;;;20.50;65.54
61478;BME280;47345;52.334;10.392;2022-09-12T12:23:28;100909.87;;;20.54;64.53
61478;BME280;47345;52.334;10.392;2022-09-12T12:26:00;100909.73;;;20.60;64.44
61478;BME280;47345;52.334;10.392;2022-09-12T12:29:00;100909.77;;;20.66;64.40
61478;BME280;47345;52.334;10.392;2022-09-12T12:31:30;100908.38;;;20.74;63.64
61478;BME280;47345;52.334;10.392;2022-09-12T12:34:25;100903.05;;;20.80;63.12
61478;BME280;47345;52.334;10.392;2022-09-12T12:36:56;100901.02;;;20.87;63.01
61478;BME280;47345;52.334;10.392;2022-09-12T12:43:02;100892.84;;;21.01;62.09
61478;BME280;47345;52.334;10.392;2022-09-12T12:46:06;100889.01;;;21.08;62.05
61478;BME280;47345;52.334;10.392;2022-09-12T12:48:50;100886.54;;;21.16;62.12
61478;BME280;47345;52.334;10.392;2022-09-12T12:51:53;100885.04;;;21.22;61.87
61478;BME280;47345;52.334;10.392;2022-09-12T12:54:48;100881.86;;;21.30;61.22
61478;BME280;47345;52.334;10.392;2022-09-12T12:57:39;100878.09;;;21.35;61.14
61478;BME280;47345;52.334;10.392;2022-09-12T13:00:33;100875.92;;;21.40;60.34
61478;BME280;47345;52.334;10.392;2022-09-12T13:03:16;100875.38;;;21.45;60.32
61478;BME280;47345;52.334;10.392;2022-09-12T13:05:50;100874.66;;;21.50;59.60
61478;BME280;47345;52.334;10.392;2022-09-12T13:08:30;100872.48;;;21.54;60.17
61478;BME280;47345;52.334;10.392;2022-09-12T13:11:03;100868.70;;;21.57;60.40
61478;BME280;47345;52.334;10.392;2022-09-12T13:13:40;100865.42;;;21.59;60.69
61478;BME280;47345;52.334;10.392;2022-09-12T13:16:30;100859.40;;;21.61;60.38
61478;BME280;47345;52.334;10.392;2022-09-12T13:19:04;100857.98;;;21.63;59.79
61478;BME280;47345;52.334;10.392;2022-09-12T13:21:35;100856.98;;;21.65;60.23
61478;BME280;47345;52.334;10.392;2022-09-12T13:24:13;100859.45;;;21.67;59.57
61478;BME280;47345;52.334;10.392;2022-09-12T13:26:48;100856.38;;;21.67;59.78
61478;BME280;47345;52.334;10.392;2022-09-12T13:29:20;100853.09;;;21.67;59.93
61478;BME280;47345;52.334;10.392;2022-09-12T13:31:53;100849.08;;;21.67;59.33
61478;BME280;47345;52.334;10.392;2022-09-12T13:34:26;100843.16;;;21.67;59.10